sensor_id;sensor_type;location;lat;lon;timestamp;temperature;humidity
25440;DHT22;13365;52.208;5.488;2023-08-06T00:01:06;20.80;99.90
25440;DHT22;13365;52.208;5.488;2023-08-06T00:03:32;20.80;99.90
25440;DHT22;13365;52.208;5.488;2023-08-06T00:05:59;20.80;99.90
25440;DHT22;13365;52.208;5.488;2023-08-06T00:08:26;20.80;99.90
25440;DHT22;13365;52.208;5.488;2023-08-06T00:10:54;20.60;99.90
25440;DHT22;13365;52.208;5.488;2023-08-06T00:13:21;20.70;99.90
25440;DHT22;13365;52.208;5.488;2023-08-06T00:15:47;20.80;99.90
25440;DHT22;13365;52.208;5.488;2023-08-06T00:18:15;20.90;99.90
25440;DHT22;13365;52.208;5.488;2023-08-06T00:20:41;20.90;99.90
25440;DHT22;13365;52.208;5.488;2023-08-06T00:23:07;20.90;99.90
25440;DHT22;13365;52.208;5.488;2023-08-06T00:25:33;20.80;99.90
25440;DHT22;13365;52.208;5.488;2023-08-06T00:27:59;20.80;99.90
25440;DHT22;13365;52.208;5.488;2023-08-06T00:30:24;20.80;99.90
25440;DHT22;13365;52.208;5.488;2023-08-06T00:32:50;20.90;99.90
25440;DHT22;13365;52.208;5.488;2023-08-06T00:35:18;20.90;99.90
25440;DHT22;13365;52.208;5.488;2023-08-06T00:37:45;20.80;99.90
25440;DHT22;13365;52.208;5.488;2023-08-06T00:40:10;20.80;99.90
25440;DHT22;13365;52.208;5.488;2023-08-06T00:42:36;20.90;99.90
25440;DHT22;13365;52.208;5.488;2023-08-06T00:45:02;20.80;99.90
25440;DHT22;13365;52.208;5.488;2023-08-06T00:47:28;20.80;99.90
25440;DHT22;13365;52.208;5.488;2023-08-06T00:49:54;20.70;99.90
25440;DHT22;13365;52.208;5.488;2023-08-06T00:52:21;20.60;99.90
25440;DHT22;13365;52.208;5.488;2023-08-06T00:54:46;20.70;99.90
25440;DHT22;13365;52.208;5.488;2023-08-06T00:57:12;20.60;99.90
25440;DHT22;13365;52.208;5.488;2023-08-06T00:59:38;20.70;99.90
25440;DHT22;13365;52.208;5.488;2023-08-06T01:02:04;20.60;99.90
25440;DHT22;13365;52.208;5.488;2023-08-06T01:04:29;20.70;99.90
25440;DHT22;13365;52.208;5.488;2023-08-06T01:07:14;20.70;99.90
25440;DHT22;13365;52.208;5.488;2023-08-06T01:09:57;20.70;99.90
25440;DHT22;13365;52.208;5.488;2023-08-06T01:12:42;20.80;99.90
25440;DHT22;13365;52.208;5.488;2023-08-06T01:15:25;20.80;99.90
25440;DHT22;13365;52.208;5.488;2023-08-06T01:17:53;20.70;99.90
25440;DHT22;13365;52.208;5.488;2023-08-06T01:20:19;20.60;99.90
25440;DHT22;13365;52.208;5.488;2023-08-06T01:22:47;20.60;99.90
25440;DHT22;13365;52.208;5.488;2023-08-06T01:25:15;20.70;99.90
25440;DHT22;13365;52.208;5.488;2023-08-06T01:27:48;20.70;99.90
25440;DHT22;13365;52.208;5.488;2023-08-06T01:30:26;20.70;99.90
25440;DHT22;13365;52.208;5.488;2023-08-06T01:32:58;20.50;99.90
25440;DHT22;13365;52.208;5.488;2023-08-06T01:35:25;20.50;99.90
25440;DHT22;13365;52.208;5.488;2023-08-06T01:37:52;20.40;99.90
25440;DHT22;13365;52.208;5.488;2023-08-06T01:40:17;20.40;99.90
25440;DHT22;13365;52.208;5.488;2023-08-06T01:42:43;20.40;99.90
25440;DHT22;13365;52.208;5.488;2023-08-06T01:45:09;20.30;99.90
25440;DHT22;13365;52.208;5.488;2023-08-06T01:47:35;20.40;99.90
25440;DHT22;13365;52.208;5.488;2023-08-06T01:50:01;20.40;99.90
25440;DHT22;13365;52.208;5.488;2023-08-06T01:52:28;20.40;99.90
25440;DHT22;13365;52.208;5.488;2023-08-06T01:54:54;20.40;99.90
25440;DHT22;13365;52.208;5.488;2023-08-06T01:57:19;20.20;99.90
25440;DHT22;13365;52.208;5.488;2023-08-06T01:59:45;20.30;99.90
25440;DHT22;13365;52.208;5.488;2023-08-06T02:02:11;20.30;99.90
25440;DHT22;13365;52.208;5.488;2023-08-06T02:04:36;20.40;99.90
25440;DHT22;13365;52.208;5.488;2023-08-06T02:07:02;20.50;99.90
25440;DHT22;13365;52.208;5.488;2023-08-06T02:09:27;20.50;99.90
25440;DHT22;13365;52.208;5.488;2023-08-06T02:11:53;20.60;99.90
25440;DHT22;13365;52.208;5.488;2023-08-06T02:14:18;20.40;99.90
25440;DHT22;13365;52.208;5.488;2023-08-06T02:16:44;20.40;99.90
25440;DHT22;13365;52.208;5.488;2023-08-06T02:19:09;20.50;99.90
25440;DHT22;13365;52.208;5.488;2023-08-06T02:21:35;20.60;99.90
25440;DHT22;13365;52.208;5.488;2023-08-06T04:16:48;20.80;99.90
25440;DHT22;13365;52.208;5.488;2023-08-06T04:19:59;20.80;99.90
25440;DHT22;13365;52.208;5.488;2023-08-06T04:22:37;20.90;99.90
25440;DHT22;13365;52.208;5.488;2023-08-06T04:25:18;21.00;99.90
25440;DHT22;13365;52.208;5.488;2023-08-06T04:30:34;21.00;99.90
25440;DHT22;13365;52.208;5.488;2023-08-06T04:32:59;21.00;99.90
25440;DHT22;13365;52.208;5.488;2023-08-06T04:35:25;20.90;99.90
25440;DHT22;13365;52.208;5.488;2023-08-06T04:37:51;20.90;99.90
25440;DHT22;13365;52.208;5.488;2023-08-06T04:40:16;21.00;99.90
25440;DHT22;13365;52.208;5.488;2023-08-06T04:42:42;21.00;99.90
25440;DHT22;13365;52.208;5.488;2023-08-06T04:45:08;21.10;99.90
25440;DHT22;13365;52.208;5.488;2023-08-06T04:47:34;21.10;99.90
25440;DHT22;13365;52.208;5.488;2023-08-06T04:49:59;21.20;99.90
25440;DHT22;13365;52.208;5.488;2023-08-06T04:52:25;21.20;99.90
25440;DHT22;13365;52.208;5.488;2023-08-06T04:54:53;21.20;99.90
25440;DHT22;13365;52.208;5.488;2023-08-06T04:57:19;21.30;99.90
25440;DHT22;13365;52.208;5.488;2023-08-06T04:59:45;21.40;99.90
25440;DHT22;13365;52.208;5.488;2023-08-06T05:02:10;21.40;99.90
25440;DHT22;13365;52.208;5.488;2023-08-06T05:04:36;21.40;99.90
25440;DHT22;13365;52.208;5.488;2023-08-06T05:07:02;21.30;99.90
25440;DHT22;13365;52.208;5.488;2023-08-06T05:09:27;21.30;99.90
25440;DHT22;13365;52.208;5.488;2023-08-06T05:11:53;21.30;99.90
25440;DHT22;13365;52.208;5.488;2023-08-06T05:14:18;21.40;99.90
25440;DHT22;13365;52.208;5.488;2023-08-06T05:16:44;21.30;99.90
25440;DHT22;13365;52.208;5.488;2023-08-06T05:19:09;21.40;99.90
25440;DHT22;13365;52.208;5.488;2023-08-06T05:21:35;21.30;99.90
25440;DHT22;13365;52.208;5.488;2023-08-06T05:24:00;21.20;99.90
25440;DHT22;13365;52.208;5.488;2023-08-06T05:26:26;21.10;99.90
25440;DHT22;13365;52.208;5.488;2023-08-06T05:28:51;21.00;99.90
25440;DHT22;13365;52.208;5.488;2023-08-06T05:31:17;20.90;99.90
25440;DHT22;13365;52.208;5.488;2023-08-06T05:33:42;21.10;99.90
25440;DHT22;13365;52.208;5.488;2023-08-06T05:36:08;21.20;99.90
25440;DHT22;13365;52.208;5.488;2023-08-06T05:38:33;21.00;99.90
25440;DHT22;13365;52.208;5.488;2023-08-06T05:40:59;21.10;99.90
25440;DHT22;13365;52.208;5.488;2023-08-06T05:43:25;21.10;99.90
25440;DHT22;13365;52.208;5.488;2023-08-06T05:45:50;21.20;99.90
25440;DHT22;13365;52.208;5.488;2023-08-06T05:48:16;21.10;99.90
25440;DHT22;13365;52.208;5.488;2023-08-06T05:50:42;21.10;99.90
25440;DHT22;13365;52.208;5.488;2023-08-06T05:53:07;21.00;99.90
25440;DHT22;13365;52.208;5.488;2023-08-06T05:55:33;21.20;99.90
25440;DHT22;13365;52.208;5.488;2023-08-06T05:57:59;21.20;99.90
25440;DHT22;13365;52.208;5.488;2023-08-06T06:00:25;21.30;99.90
25440;DHT22;13365;52.208;5.488;2023-08-06T06:02:50;21.40;99.90
25440;DHT22;13365;52.208;5.488;2023-08-06T06:05:16;21.50;99.90
25440;DHT22;13365;52.208;5.488;2023-08-06T06:07:42;21.60;99.90
25440;DHT22;13365;52.208;5.488;2023-08-06T06:10:07;21.50;99.90
25440;DHT22;13365;52.208;5.488;2023-08-06T06:12:33;21.60;99.90
25440;DHT22;13365;52.208;5.488;2023-08-06T06:14:59;21.60;99.90
25440;DHT22;13365;52.208;5.488;2023-08-06T06:17:26;21.70;99.90
25440;DHT22;13365;52.208;5.488;2023-08-06T06:19:52;21.70;99.90
25440;DHT22;13365;52.208;5.488;2023-08-06T06:22:17;21.80;99.90
25440;DHT22;13365;52.208;5.488;2023-08-06T06:24:43;21.50;99.90
25440;DHT22;13365;52.208;5.488;2023-08-06T06:27:08;21.60;99.90
25440;DHT22;13365;52.208;5.488;2023-08-06T06:29:34;21.50;99.90
25440;DHT22;13365;52.208;5.488;2023-08-06T06:31:59;21.60;99.90
25440;DHT22;13365;52.208;5.488;2023-08-06T06:34:25;21.50;99.90
25440;DHT22;13365;52.208;5.488;2023-08-06T06:36:50;21.50;99.90
25440;DHT22;13365;52.208;5.488;2023-08-06T06:39:17;21.40;99.90
25440;DHT22;13365;52.208;5.488;2023-08-06T06:41:43;21.40;99.90
25440;DHT22;13365;52.208;5.488;2023-08-06T06:44:09;21.60;99.90
25440;DHT22;13365;52.208;5.488;2023-08-06T06:46:35;21.70;99.90
25440;DHT22;13365;52.208;5.488;2023-08-06T06:49:00;21.80;99.90
25440;DHT22;13365;52.208;5.488;2023-08-06T06:51:25;21.80;99.90
25440;DHT22;13365;52.208;5.488;2023-08-06T06:53:51;21.90;99.90
25440;DHT22;13365;52.208;5.488;2023-08-06T06:56:16;21.90;99.90
25440;DHT22;13365;52.208;5.488;2023-08-06T06:58:42;22.10;99.90
25440;DHT22;13365;52.208;5.488;2023-08-06T07:01:09;22.10;99.90
25440;DHT22;13365;52.208;5.488;2023-08-06T07:03:35;22.20;99.90
25440;DHT22;13365;52.208;5.488;2023-08-06T07:06:01;22.20;99.90
25440;DHT22;13365;52.208;5.488;2023-08-06T07:08:27;22.30;99.90
25440;DHT22;13365;52.208;5.488;2023-08-06T07:11:00;22.30;99.90
25440;DHT22;13365;52.208;5.488;2023-08-06T07:13:26;22.40;99.90
25440;DHT22;13365;52.208;5.488;2023-08-06T07:15:52;22.50;99.90
25440;DHT22;13365;52.208;5.488;2023-08-06T07:18:19;22.40;99.90
25440;DHT22;13365;52.208;5.488;2023-08-06T07:20:49;22.60;99.90
25440;DHT22;13365;52.208;5.488;2023-08-06T07:23:14;22.60;99.90
25440;DHT22;13365;52.208;5.488;2023-08-06T07:25:40;22.60;99.90
25440;DHT22;13365;52.208;5.488;2023-08-06T07:28:05;22.60;99.90
25440;DHT22;13365;52.208;5.488;2023-08-06T07:30:31;22.70;99.90
25440;DHT22;13365;52.208;5.488;2023-08-06T07:32:56;22.80;99.90
25440;DHT22;13365;52.208;5.488;2023-08-06T07:35:22;22.80;99.90
25440;DHT22;13365;52.208;5.488;2023-08-06T07:37:47;22.90;99.90
25440;DHT22;13365;52.208;5.488;2023-08-06T07:40:13;22.80;99.90
25440;DHT22;13365;52.208;5.488;2023-08-06T07:42:39;22.80;99.90
25440;DHT22;13365;52.208;5.488;2023-08-06T07:45:05;22.90;99.90
25440;DHT22;13365;52.208;5.488;2023-08-06T07:47:30;22.80;99.90
25440;DHT22;13365;52.208;5.488;2023-08-06T07:49:56;22.80;99.90
25440;DHT22;13365;52.208;5.488;2023-08-06T07:52:21;22.90;99.90
25440;DHT22;13365;52.208;5.488;2023-08-06T07:54:47;22.90;99.90
25440;DHT22;13365;52.208;5.488;2023-08-06T07:57:12;22.80;99.90
25440;DHT22;13365;52.208;5.488;2023-08-06T07:59:40;22.90;99.90
25440;DHT22;13365;52.208;5.488;2023-08-06T08:02:05;23.00;99.90
25440;DHT22;13365;52.208;5.488;2023-08-06T08:04:31;22.90;99.90
25440;DHT22;13365;52.208;5.488;2023-08-06T08:06:56;23.10;99.90
25440;DHT22;13365;52.208;5.488;2023-08-06T08:09:22;23.10;99.90
25440;DHT22;13365;52.208;5.488;2023-08-06T08:11:47;23.00;99.90
25440;DHT22;13365;52.208;5.488;2023-08-06T08:14:13;23.00;99.90
25440;DHT22;13365;52.208;5.488;2023-08-06T08:16:38;23.00;99.90
25440;DHT22;13365;52.208;5.488;2023-08-06T08:19:04;22.80;99.90
25440;DHT22;13365;52.208;5.488;2023-08-06T08:21:29;22.50;99.90
25440;DHT22;13365;52.208;5.488;2023-08-06T08:23:55;22.60;99.90
25440;DHT22;13365;52.208;5.488;2023-08-06T08:26:20;22.90;99.90
25440;DHT22;13365;52.208;5.488;2023-08-06T08:28:46;22.90;99.90
25440;DHT22;13365;52.208;5.488;2023-08-06T08:31:12;22.90;99.90
25440;DHT22;13365;52.208;5.488;2023-08-06T08:33:38;22.90;99.90
25440;DHT22;13365;52.208;5.488;2023-08-06T08:36:03;22.90;99.90
25440;DHT22;13365;52.208;5.488;2023-08-06T08:38:29;22.90;99.90
25440;DHT22;13365;52.208;5.488;2023-08-06T08:40:55;22.90;99.90
25440;DHT22;13365;52.208;5.488;2023-08-06T08:43:21;22.80;99.90
25440;DHT22;13365;52.208;5.488;2023-08-06T08:45:50;23.20;99.90
25440;DHT22;13365;52.208;5.488;2023-08-06T08:48:16;23.10;99.90
25440;DHT22;13365;52.208;5.488;2023-08-06T08:50:44;23.00;99.90
25440;DHT22;13365;52.208;5.488;2023-08-06T08:53:11;23.00;99.90
25440;DHT22;13365;52.208;5.488;2023-08-06T08:55:38;23.20;99.90
25440;DHT22;13365;52.208;5.488;2023-08-06T08:58:04;23.10;99.90
25440;DHT22;13365;52.208;5.488;2023-08-06T09:00:30;23.00;99.90
25440;DHT22;13365;52.208;5.488;2023-08-06T09:02:56;22.90;99.90
25440;DHT22;13365;52.208;5.488;2023-08-06T09:05:23;23.00;99.90
25440;DHT22;13365;52.208;5.488;2023-08-06T09:07:51;23.00;99.90
25440;DHT22;13365;52.208;5.488;2023-08-06T09:10:19;22.70;99.90
25440;DHT22;13365;52.208;5.488;2023-08-06T09:12:49;22.20;99.90
25440;DHT22;13365;52.208;5.488;2023-08-06T09:15:16;22.00;99.90
25440;DHT22;13365;52.208;5.488;2023-08-06T09:17:41;21.40;99.90
25440;DHT22;13365;52.208;5.488;2023-08-06T09:20:13;21.10;99.90
25440;DHT22;13365;52.208;5.488;2023-08-06T09:22:39;20.70;99.90
25440;DHT22;13365;52.208;5.488;2023-08-06T09:25:06;20.50;99.90
25440;DHT22;13365;52.208;5.488;2023-08-06T09:27:37;20.20;99.90
25440;DHT22;13365;52.208;5.488;2023-08-06T09:30:03;20.30;99.90
25440;DHT22;13365;52.208;5.488;2023-08-06T09:32:49;20.10;99.90
25440;DHT22;13365;52.208;5.488;2023-08-06T09:35:18;19.90;99.90
25440;DHT22;13365;52.208;5.488;2023-08-06T09:37:45;19.70;99.90
25440;DHT22;13365;52.208;5.488;2023-08-06T09:40:30;19.60;99.90
25440;DHT22;13365;52.208;5.488;2023-08-06T09:42:57;19.50;99.90
25440;DHT22;13365;52.208;5.488;2023-08-06T09:45:24;19.40;99.90
25440;DHT22;13365;52.208;5.488;2023-08-06T09:48:01;19.30;99.90
25440;DHT22;13365;52.208;5.488;2023-08-06T09:50:31;19.20;99.90
25440;DHT22;13365;52.208;5.488;2023-08-06T09:53:05;19.00;99.90
25440;DHT22;13365;52.208;5.488;2023-08-06T10:10:14;19.00;99.90
25440;DHT22;13365;52.208;5.488;2023-08-06T10:16:16;19.10;99.90
25440;DHT22;13365;52.208;5.488;2023-08-06T10:22:42;19.10;99.90
25440;DHT22;13365;52.208;5.488;2023-08-06T10:25:18;19.00;99.90
25440;DHT22;13365;52.208;5.488;2023-08-06T10:28:33;18.90;99.90
25440;DHT22;13365;52.208;5.488;2023-08-06T10:31:07;19.20;99.90
25440;DHT22;13365;52.208;5.488;2023-08-06T10:33:48;19.20;99.90
25440;DHT22;13365;52.208;5.488;2023-08-06T10:47:54;19.10;99.90
25440;DHT22;13365;52.208;5.488;2023-08-06T10:50:52;18.90;99.90
25440;DHT22;13365;52.208;5.488;2023-08-06T10:56:56;18.80;99.90
25440;DHT22;13365;52.208;5.488;2023-08-06T11:09:04;19.10;99.90
25440;DHT22;13365;52.208;5.488;2023-08-06T11:11:51;18.80;99.90
25440;DHT22;13365;52.208;5.488;2023-08-06T11:20:14;18.70;99.90
25440;DHT22;13365;52.208;5.488;2023-08-06T11:26:09;18.50;99.90
25440;DHT22;13365;52.208;5.488;2023-08-06T11:28:57;18.90;99.90
25440;DHT22;13365;52.208;5.488;2023-08-06T11:31:35;18.90;99.90
25440;DHT22;13365;52.208;5.488;2023-08-06T11:40:37;18.70;99.90
25440;DHT22;13365;52.208;5.488;2023-08-06T11:43:33;18.80;99.90
25440;DHT22;13365;52.208;5.488;2023-08-06T11:45:59;18.80;99.90
25440;DHT22;13365;52.208;5.488;2023-08-06T11:48:33;18.90;99.90
25440;DHT22;13365;52.208;5.488;2023-08-06T11:51:15;18.80;99.90
25440;DHT22;13365;52.208;5.488;2023-08-06T11:53:41;18.90;99.90
25440;DHT22;13365;52.208;5.488;2023-08-06T11:56:12;18.70;99.90
25440;DHT22;13365;52.208;5.488;2023-08-06T11:58:42;18.70;99.90
25440;DHT22;13365;52.208;5.488;2023-08-06T12:01:22;18.70;99.90
25440;DHT22;13365;52.208;5.488;2023-08-06T12:03:50;18.40;99.90
25440;DHT22;13365;52.208;5.488;2023-08-06T12:06:16;18.70;99.90
25440;DHT22;13365;52.208;5.488;2023-08-06T12:08:44;19.00;99.90
25440;DHT22;13365;52.208;5.488;2023-08-06T12:11:41;19.10;99.90
25440;DHT22;13365;52.208;5.488;2023-08-06T12:14:27;19.00;99.90
25440;DHT22;13365;52.208;5.488;2023-08-06T12:16:53;19.00;99.90
25440;DHT22;13365;52.208;5.488;2023-08-06T13:11:10;19.00;99.90
25440;DHT22;13365;52.208;5.488;2023-08-06T13:13:36;18.80;99.90
25440;DHT22;13365;52.208;5.488;2023-08-06T13:16:01;18.80;99.90
25440;DHT22;13365;52.208;5.488;2023-08-06T13:18:27;19.00;99.90
25440;DHT22;13365;52.208;5.488;2023-08-06T13:20:54;19.20;99.90
25440;DHT22;13365;52.208;5.488;2023-08-06T13:23:20;19.20;99.90
25440;DHT22;13365;52.208;5.488;2023-08-06T13:25:52;19.40;99.90
25440;DHT22;13365;52.208;5.488;2023-08-06T13:28:20;19.40;99.90
25440;DHT22;13365;52.208;5.488;2023-08-06T13:30:55;19.30;99.90
25440;DHT22;13365;52.208;5.488;2023-08-06T13:33:33;19.50;99.90
25440;DHT22;13365;52.208;5.488;2023-08-06T13:35:59;19.50;99.90
25440;DHT22;13365;52.208;5.488;2023-08-06T13:38:24;19.60;99.90
25440;DHT22;13365;52.208;5.488;2023-08-06T13:41:13;19.50;99.90
25440;DHT22;13365;52.208;5.488;2023-08-06T13:43:59;19.40;99.90
25440;DHT22;13365;52.208;5.488;2023-08-06T13:49:42;19.50;99.90
25440;DHT22;13365;52.208;5.488;2023-08-06T13:52:16;19.50;99.90
25440;DHT22;13365;52.208;5.488;2023-08-06T14:33:20;20.10;99.90
25440;DHT22;13365;52.208;5.488;2023-08-06T14:35:48;20.30;99.90
25440;DHT22;13365;52.208;5.488;2023-08-06T14:38:13;20.50;99.90
25440;DHT22;13365;52.208;5.488;2023-08-06T14:40:50;20.50;99.90
25440;DHT22;13365;52.208;5.488;2023-08-06T14:43:16;20.40;99.90
25440;DHT22;13365;52.208;5.488;2023-08-06T14:45:41;20.60;99.90
25440;DHT22;13365;52.208;5.488;2023-08-06T14:48:08;20.60;99.90
25440;DHT22;13365;52.208;5.488;2023-08-06T14:50:36;20.60;99.90
25440;DHT22;13365;52.208;5.488;2023-08-06T14:53:03;20.50;99.90
25440;DHT22;13365;52.208;5.488;2023-08-06T14:55:30;20.60;99.90
25440;DHT22;13365;52.208;5.488;2023-08-06T14:57:55;20.60;99.90
25440;DHT22;13365;52.208;5.488;2023-08-06T15:00:21;20.70;99.90
25440;DHT22;13365;52.208;5.488;2023-08-06T15:02:47;20.60;99.90
25440;DHT22;13365;52.208;5.488;2023-08-06T15:05:12;20.60;99.90
25440;DHT22;13365;52.208;5.488;2023-08-06T15:07:38;20.50;99.90
25440;DHT22;13365;52.208;5.488;2023-08-06T15:10:05;20.30;99.90
25440;DHT22;13365;52.208;5.488;2023-08-06T15:12:31;20.20;99.90
25440;DHT22;13365;52.208;5.488;2023-08-06T15:14:58;20.10;99.90
25440;DHT22;13365;52.208;5.488;2023-08-06T15:17:24;20.10;99.90
25440;DHT22;13365;52.208;5.488;2023-08-06T15:19:49;20.00;99.90
25440;DHT22;13365;52.208;5.488;2023-08-06T15:22:15;19.90;99.90
25440;DHT22;13365;52.208;5.488;2023-08-06T15:24:40;19.70;99.90
25440;DHT22;13365;52.208;5.488;2023-08-06T15:27:08;19.50;99.90
25440;DHT22;13365;52.208;5.488;2023-08-06T15:29:34;19.30;99.90
25440;DHT22;13365;52.208;5.488;2023-08-06T15:32:00;19.30;99.90
25440;DHT22;13365;52.208;5.488;2023-08-06T15:34:25;19.10;99.90
25440;DHT22;13365;52.208;5.488;2023-08-06T15:36:51;18.90;99.90
25440;DHT22;13365;52.208;5.488;2023-08-06T15:39:16;18.70;99.90
25440;DHT22;13365;52.208;5.488;2023-08-06T15:41:42;18.60;99.90
25440;DHT22;13365;52.208;5.488;2023-08-06T15:44:07;18.90;99.90
25440;DHT22;13365;52.208;5.488;2023-08-06T15:46:33;19.10;99.90
25440;DHT22;13365;52.208;5.488;2023-08-06T15:49:00;19.10;99.90
25440;DHT22;13365;52.208;5.488;2023-08-06T15:51:25;19.10;99.90
25440;DHT22;13365;52.208;5.488;2023-08-06T15:53:51;19.10;99.90
25440;DHT22;13365;52.208;5.488;2023-08-06T15:56:16;19.30;99.90
25440;DHT22;13365;52.208;5.488;2023-08-06T15:58:42;19.40;99.90
25440;DHT22;13365;52.208;5.488;2023-08-06T16:01:07;19.30;99.90
25440;DHT22;13365;52.208;5.488;2023-08-06T16:03:33;19.20;99.90
25440;DHT22;13365;52.208;5.488;2023-08-06T16:05:58;19.00;99.90
25440;DHT22;13365;52.208;5.488;2023-08-06T16:08:24;19.20;99.90
25440;DHT22;13365;52.208;5.488;2023-08-06T16:10:50;19.10;99.90
25440;DHT22;13365;52.208;5.488;2023-08-06T16:13:16;18.90;99.90
25440;DHT22;13365;52.208;5.488;2023-08-06T16:15:42;18.90;99.90
25440;DHT22;13365;52.208;5.488;2023-08-06T16:18:08;18.80;99.90
25440;DHT22;13365;52.208;5.488;2023-08-06T16:20:33;18.90;99.90
25440;DHT22;13365;52.208;5.488;2023-08-06T16:22:59;19.00;99.90
25440;DHT22;13365;52.208;5.488;2023-08-06T16:25:24;19.20;99.90
25440;DHT22;13365;52.208;5.488;2023-08-06T16:27:50;19.30;99.90
25440;DHT22;13365;52.208;5.488;2023-08-06T16:30:15;19.40;99.90
25440;DHT22;13365;52.208;5.488;2023-08-06T16:32:42;19.60;99.90
25440;DHT22;13365;52.208;5.488;2023-08-06T16:35:09;19.50;99.90
25440;DHT22;13365;52.208;5.488;2023-08-06T16:37:35;19.40;99.90
25440;DHT22;13365;52.208;5.488;2023-08-06T16:40:01;19.30;99.90
25440;DHT22;13365;52.208;5.488;2023-08-06T16:42:29;19.30;99.90
25440;DHT22;13365;52.208;5.488;2023-08-06T16:44:56;19.10;99.90
25440;DHT22;13365;52.208;5.488;2023-08-06T16:47:21;18.90;99.90
25440;DHT22;13365;52.208;5.488;2023-08-06T16:49:47;18.80;99.90
25440;DHT22;13365;52.208;5.488;2023-08-06T16:52:12;18.50;99.90
25440;DHT22;13365;52.208;5.488;2023-08-06T16:54:38;18.50;99.90
25440;DHT22;13365;52.208;5.488;2023-08-06T16:57:03;18.50;99.90
25440;DHT22;13365;52.208;5.488;2023-08-06T16:59:29;18.40;99.90
25440;DHT22;13365;52.208;5.488;2023-08-06T17:01:54;18.40;99.90
25440;DHT22;13365;52.208;5.488;2023-08-06T17:04:20;18.40;99.90
25440;DHT22;13365;52.208;5.488;2023-08-06T17:06:45;18.20;99.90
25440;DHT22;13365;52.208;5.488;2023-08-06T17:09:12;18.10;99.90
25440;DHT22;13365;52.208;5.488;2023-08-06T17:11:39;18.10;99.90
25440;DHT22;13365;52.208;5.488;2023-08-06T17:14:04;18.10;99.90
25440;DHT22;13365;52.208;5.488;2023-08-06T17:16:30;18.10;99.90
25440;DHT22;13365;52.208;5.488;2023-08-06T17:18:55;18.30;99.90
25440;DHT22;13365;52.208;5.488;2023-08-06T17:21:21;18.10;99.90
25440;DHT22;13365;52.208;5.488;2023-08-06T17:23:47;18.10;99.90
25440;DHT22;13365;52.208;5.488;2023-08-06T17:26:12;18.10;99.90
25440;DHT22;13365;52.208;5.488;2023-08-06T17:28:38;18.10;99.90
25440;DHT22;13365;52.208;5.488;2023-08-06T17:31:03;18.00;99.90
25440;DHT22;13365;52.208;5.488;2023-08-06T17:33:32;17.80;99.90
25440;DHT22;13365;52.208;5.488;2023-08-06T17:35:57;17.80;99.90
25440;DHT22;13365;52.208;5.488;2023-08-06T17:38:23;17.70;99.90
25440;DHT22;13365;52.208;5.488;2023-08-06T17:40:54;17.80;99.90
25440;DHT22;13365;52.208;5.488;2023-08-06T17:43:21;18.10;99.90
25440;DHT22;13365;52.208;5.488;2023-08-06T17:45:46;18.20;99.90
25440;DHT22;13365;52.208;5.488;2023-08-06T17:48:12;18.20;99.90
25440;DHT22;13365;52.208;5.488;2023-08-06T17:50:40;18.20;99.90
25440;DHT22;13365;52.208;5.488;2023-08-06T17:53:06;18.30;99.90
25440;DHT22;13365;52.208;5.488;2023-08-06T17:55:31;18.30;99.90
25440;DHT22;13365;52.208;5.488;2023-08-06T17:57:57;18.40;99.90
25440;DHT22;13365;52.208;5.488;2023-08-06T18:00:23;18.40;99.90
25440;DHT22;13365;52.208;5.488;2023-08-06T18:02:50;18.30;99.90
25440;DHT22;13365;52.208;5.488;2023-08-06T18:05:16;18.30;99.90
25440;DHT22;13365;52.208;5.488;2023-08-06T18:07:43;18.20;99.90
25440;DHT22;13365;52.208;5.488;2023-08-06T18:10:10;18.10;99.90
25440;DHT22;13365;52.208;5.488;2023-08-06T18:12:36;17.90;99.90
25440;DHT22;13365;52.208;5.488;2023-08-06T18:15:02;18.00;99.90
25440;DHT22;13365;52.208;5.488;2023-08-06T18:17:28;17.80;99.90
25440;DHT22;13365;52.208;5.488;2023-08-06T18:19:53;18.10;99.90
25440;DHT22;13365;52.208;5.488;2023-08-06T18:22:19;18.10;99.90
25440;DHT22;13365;52.208;5.488;2023-08-06T18:24:44;18.10;99.90
25440;DHT22;13365;52.208;5.488;2023-08-06T18:27:10;18.10;99.90
25440;DHT22;13365;52.208;5.488;2023-08-06T18:29:42;18.20;99.90
25440;DHT22;13365;52.208;5.488;2023-08-06T18:32:07;18.30;99.90
25440;DHT22;13365;52.208;5.488;2023-08-06T18:34:33;18.30;99.90
25440;DHT22;13365;52.208;5.488;2023-08-06T18:36:59;18.30;99.90
25440;DHT22;13365;52.208;5.488;2023-08-06T18:39:25;18.00;99.90
25440;DHT22;13365;52.208;5.488;2023-08-06T18:41:51;17.70;99.90
25440;DHT22;13365;52.208;5.488;2023-08-06T18:44:17;17.90;99.90
25440;DHT22;13365;52.208;5.488;2023-08-06T18:46:43;17.80;99.90
25440;DHT22;13365;52.208;5.488;2023-08-06T18:49:08;17.70;99.90
25440;DHT22;13365;52.208;5.488;2023-08-06T18:51:34;17.70;99.90
25440;DHT22;13365;52.208;5.488;2023-08-06T18:54:01;17.90;99.90
25440;DHT22;13365;52.208;5.488;2023-08-06T18:56:27;18.00;99.90
25440;DHT22;13365;52.208;5.488;2023-08-06T18:58:53;18.00;99.90
25440;DHT22;13365;52.208;5.488;2023-08-06T19:01:19;17.60;99.90
25440;DHT22;13365;52.208;5.488;2023-08-06T19:11:12;18.00;99.90
25440;DHT22;13365;52.208;5.488;2023-08-06T19:13:54;17.80;99.90
25440;DHT22;13365;52.208;5.488;2023-08-06T19:16:39;17.90;99.90
25440;DHT22;13365;52.208;5.488;2023-08-06T19:19:16;17.80;99.90
25440;DHT22;13365;52.208;5.488;2023-08-06T19:21:42;17.70;99.90
25440;DHT22;13365;52.208;5.488;2023-08-06T19:27:16;17.50;99.90
25440;DHT22;13365;52.208;5.488;2023-08-06T19:29:59;17.50;99.90
25440;DHT22;13365;52.208;5.488;2023-08-06T19:32:24;17.50;99.90
25440;DHT22;13365;52.208;5.488;2023-08-06T19:35:08;17.70;99.90
25440;DHT22;13365;52.208;5.488;2023-08-06T19:40:36;17.20;99.90
25440;DHT22;13365;52.208;5.488;2023-08-06T19:43:13;17.10;99.90
25440;DHT22;13365;52.208;5.488;2023-08-06T19:45:54;16.90;99.90
25440;DHT22;13365;52.208;5.488;2023-08-06T19:48:27;17.30;99.90
25440;DHT22;13365;52.208;5.488;2023-08-06T19:50:54;17.40;99.90
25440;DHT22;13365;52.208;5.488;2023-08-06T19:53:29;17.60;99.90
25440;DHT22;13365;52.208;5.488;2023-08-06T19:55:59;17.50;99.90
25440;DHT22;13365;52.208;5.488;2023-08-06T19:58:30;17.70;99.90
25440;DHT22;13365;52.208;5.488;2023-08-06T20:00:56;17.60;99.90
25440;DHT22;13365;52.208;5.488;2023-08-06T20:03:29;17.50;99.90
25440;DHT22;13365;52.208;5.488;2023-08-06T20:05:59;17.40;99.90
25440;DHT22;13365;52.208;5.488;2023-08-06T20:08:25;17.30;99.90
25440;DHT22;13365;52.208;5.488;2023-08-06T20:10:51;17.40;99.90
25440;DHT22;13365;52.208;5.488;2023-08-06T20:13:22;17.30;99.90
25440;DHT22;13365;52.208;5.488;2023-08-06T20:15:48;17.40;99.90
25440;DHT22;13365;52.208;5.488;2023-08-06T20:18:15;17.40;99.90
25440;DHT22;13365;52.208;5.488;2023-08-06T20:20:49;17.40;99.90